Time;durP1;ratioP1;P1;durP2;ratioP2;P2;SDS_P1;SDS_P2;PMS_P1;PMS_P2;Temp;Humidity;BMP_temperature;BMP_pressure;BME280_temperature;BME280_humidity;BME280_pressure;Samples;Min_cycle;Max_cycle;Signal;HPM_P1;HPM_P2
2023/06/12 00:02:05;;;;;;;6.00;4.20;;;;;;;13.38;53.77;100725.79;131447;1257;106519;-81
2023/06/12 00:05:11;;;;;;;5.60;4.20;;;;;;;13.35;53.94;100723.61;131495;1254;107353;-81
2023/06/12 00:08:18;;;;;;;4.60;4.20;;;;;;;13.30;54.05;100721.19;131460;1263;107380;-81
2023/06/12 00:11:23;;;;;;;5.40;4.20;;;;;;;13.25;54.08;100722.23;131259;1252;107544;-81
2023/06/12 00:14:29;;;;;;;4.60;4.10;;;;;;;13.15;54.07;100721.13;131253;1253;107397;-80
2023/06/12 00:17:34;;;;;;;5.50;4.30;;;;;;;13.04;54.30;100723.39;131164;1253;107517;-81
2023/06/12 00:20:40;;;;;;;5.70;4.70;;;;;;;12.99;54.45;100722.69;131545;1264;107524;-81
2023/06/12 00:23:45;;;;;;;7.00;4.40;;;;;;;12.96;54.52;100717.69;131516;1263;107558;-80
2023/06/12 00:26:51;;;;;;;5.50;4.20;;;;;;;12.93;54.78;100723.20;131583;1254;107541;-81
2023/06/12 00:29:57;;;;;;;5.30;4.30;;;;;;;12.89;54.71;100718.23;131577;1251;107532;-80
2023/06/12 00:33:03;;;;;;;6.10;5.00;;;;;;;12.86;54.74;100725.56;132097;1254;106401;-80
2023/06/12 00:36:09;;;;;;;5.40;4.70;;;;;;;12.73;55.01;100730.08;131888;1261;107720;-80
2023/06/12 00:39:14;;;;;;;6.10;4.70;;;;;;;12.69;55.18;100726.57;131683;1254;105797;-80
2023/06/12 00:42:20;;;;;;;5.40;4.70;;;;;;;12.69;55.21;100724.23;131575;1256;108187;-80
2023/06/12 00:45:26;;;;;;;7.20;4.60;;;;;;;12.69;55.28;100730.81;131598;1254;107558;-80
2023/06/12 00:48:32;;;;;;;7.30;5.10;;;;;;;12.66;55.33;100732.42;131585;1263;107520;-80
2023/06/12 00:51:39;;;;;;;5.90;5.10;;;;;;;12.63;55.42;100731.34;131992;1252;107543;-80
2023/06/12 00:54:45;;;;;;;6.50;4.90;;;;;;;12.56;55.29;100733.36;132210;1261;108507;-79
2023/06/12 00:57:51;;;;;;;6.70;4.70;;;;;;;12.50;55.61;100735.17;131740;1251;106281;-79
2023/06/12 01:00:57;;;;;;;5.40;4.50;;;;;;;12.50;55.60;100733.41;131681;1254;107639;-80
2023/06/12 01:04:03;;;;;;;5.70;4.60;;;;;;;12.46;55.42;100728.67;131544;1253;106743;-79
2023/06/12 01:07:15;;;;;;;8.90;4.80;;;;;;;12.40;55.60;100729.44;131532;1251;107493;-79
2023/06/12 01:10:33;;;;;;;6.00;4.30;;;;;;;12.38;55.82;100730.39;131460;1262;107413;-79
2023/06/12 01:13:39;;;;;;;5.60;4.50;;;;;;;12.36;55.81;100731.80;131384;1249;108668;-79
2023/06/12 01:16:45;;;;;;;6.60;4.60;;;;;;;12.33;55.84;100733.35;131844;1250;107230;-81
2023/06/12 01:19:51;;;;;;;4.90;4.40;;;;;;;12.25;55.69;100730.20;132178;1251;107513;-80
2023/06/12 01:23:02;;;;;;;6.00;4.70;;;;;;;12.20;55.93;100729.33;131744;1253;107638;-80
2023/06/12 01:26:26;;;;;;;7.00;4.40;;;;;;;12.16;56.09;100735.36;131780;1254;106567;-80
2023/06/12 01:30:02;;;;;;;6.40;4.70;;;;;;;12.11;55.97;100727.91;131994;1253;107633;-82
2023/06/12 01:33:13;;;;;;;5.40;4.30;;;;;;;12.08;56.26;100730.35;132378;1260;107575;-80
2023/06/12 01:36:24;;;;;;;5.80;4.80;;;;;;;12.03;56.14;100731.90;132463;1251;107317;-80
2023/06/12 01:39:35;;;;;;;5.30;4.80;;;;;;;11.97;56.37;100731.15;132162;1253;107469;-80
2023/06/12 01:42:41;;;;;;;7.50;4.70;;;;;;;11.93;56.59;100733.04;131959;1251;107182;-80
2023/06/12 01:45:47;;;;;;;6.50;4.60;;;;;;;11.88;56.45;100730.61;131986;1261;107517;-80
2023/06/12 01:48:52;;;;;;;6.10;4.90;;;;;;;11.83;56.38;100733.23;131987;1254;106437;-80
2023/06/12 01:51:58;;;;;;;6.30;4.40;;;;;;;11.80;56.49;100734.60;132102;1251;107502;-80
2023/06/12 01:55:04;;;;;;;5.90;4.60;;;;;;;11.77;56.48;100731.15;132161;1251;107269;-80
2023/06/12 01:58:10;;;;;;;7.30;4.80;;;;;;;11.76;56.66;100733.59;132333;1262;107619;-80
2023/06/12 02:01:33;;;;;;;6.50;4.60;;;;;;;11.75;56.68;100734.06;132643;1251;107490;-80
2023/06/12 02:04:39;;;;;;;5.80;4.70;;;;;;;11.71;56.39;100734.59;132053;1254;106383;-80
2023/06/12 02:07:44;;;;;;;6.40;5.30;;;;;;;11.66;56.82;100734.05;131133;1253;107409;-79
2023/06/12 02:10:50;;;;;;;6.30;4.90;;;;;;;11.64;56.84;100737.07;131192;1254;107605;-80
2023/06/12 02:13:55;;;;;;;5.10;4.50;;;;;;;11.62;56.64;100731.40;131185;1253;107490;-80
2023/06/12 02:17:03;;;;;;;6.20;4.90;;;;;;;11.58;56.94;100733.90;131195;1254;107192;-79
2023/06/12 02:20:15;;;;;;;5.40;4.60;;;;;;;11.55;56.94;100736.13;131232;1252;107534;-79
2023/06/12 02:23:20;;;;;;;;;;;;;;;11.52;57.05;100737.83;131295;1254;107702;-80
2023/06/12 02:26:26;;;;;;;6.80;4.80;;;;;;;11.49;57.22;100737.59;131946;1255;107364;-79
2023/06/12 02:29:32;;;;;;;6.10;4.60;;;;;;;11.44;57.29;100736.48;132087;1253;107543;-80
2023/06/12 02:32:39;;;;;;;7.00;4.70;;;;;;;11.39;57.41;100736.62;131184;1251;107525;-80
2023/06/12 02:35:44;;;;;;;5.30;4.70;;;;;;;11.36;57.44;100734.38;131268;1253;108678;-79
2023/06/12 02:38:51;;;;;;;6.10;5.00;;;;;;;11.33;57.28;100737.32;131175;1253;107505;-80
2023/06/12 02:41:57;;;;;;;5.70;5.10;;;;;;;11.29;57.35;100738.73;131284;1255;107337;-72
2023/06/12 02:45:03;;;;;;;7.20;5.60;;;;;;;11.23;57.36;100733.86;131106;1253;107387;-72
2023/06/12 02:48:09;;;;;;;6.20;5.10;;;;;;;11.01;57.90;100738.40;131984;1250;107498;-72
2023/06/12 02:51:17;;;;;;;7.60;5.50;;;;;;;10.83;58.11;100741.13;131212;1261;107533;-72
2023/06/12 02:54:24;;;;;;;9.10;5.10;;;;;;;10.74;58.05;100743.60;131082;1253;107474;-71
2023/06/12 02:57:30;;;;;;;6.00;5.00;;;;;;;10.70;58.63;100749.66;131184;1254;107532;-73
2023/06/12 03:00:36;;;;;;;7.10;4.90;;;;;;;10.68;58.51;100752.13;131087;1255;107663;-73
2023/06/12 03:03:43;;;;;;;6.60;5.00;;;;;;;10.64;58.61;100756.09;131054;1254;107337;-72
2023/06/12 03:06:51;;;;;;;6.60;4.90;;;;;;;10.62;58.81;100754.98;131198;1251;107569;-72
2023/06/12 03:09:57;;;;;;;6.30;4.80;;;;;;;10.72;58.66;100756.75;131089;1254;107504;-72
2023/06/12 03:13:03;;;;;;;5.70;4.40;;;;;;;10.83;59.06;100757.53;131092;1253;107222;-73
2023/06/12 03:16:09;;;;;;;6.20;4.60;;;;;;;11.05;59.08;100760.59;131164;1252;107368;-71
2023/06/12 03:19:15;;;;;;;7.00;4.70;;;;;;;11.37;58.71;100757.25;131188;1254;106617;-72
2023/06/12 03:22:21;;;;;;;7.30;5.10;;;;;;;11.73;59.06;100753.29;131072;1254;106517;-73
2023/06/12 03:25:26;;;;;;;8.30;5.20;;;;;;;12.09;58.68;100756.11;131231;1253;107497;-72
2023/06/12 03:28:34;;;;;;;6.20;5.50;;;;;;;12.41;58.39;100753.96;131142;1251;107357;-72
2023/06/12 03:31:40;;;;;;;6.40;5.40;;;;;;;12.70;58.32;100751.81;131163;1256;107409;-75
2023/06/12 03:34:47;;;;;;;5.70;5.10;;;;;;;12.94;58.39;100750.29;131034;1254;107477;-73
2023/06/12 03:37:53;;;;;;;7.20;5.00;;;;;;;13.13;58.06;100750.88;131174;1253;108671;-72
2023/06/12 03:40:59;;;;;;;7.10;5.40;;;;;;;13.39;58.23;100755.15;131069;1254;107391;-72
2023/06/12 03:44:05;;;;;;;5.60;5.10;;;;;;;13.68;58.12;100749.66;131128;1254;107623;-71
2023/06/12 03:47:11;;;;;;;7.80;5.50;;;;;;;13.92;58.10;100743.52;131172;1253;107424;-71
2023/06/12 03:50:19;;;;;;;5.70;5.10;;;;;;;14.12;57.97;100748.91;131192;1251;107537;-71
2023/06/12 03:53:25;;;;;;;6.90;5.80;;;;;;;14.34;57.94;100748.69;131344;1250;107511;-71
2023/06/12 03:56:31;;;;;;;6.60;5.50;;;;;;;14.60;57.96;100745.44;131153;1254;107426;-73
2023/06/12 03:59:37;;;;;;;6.00;5.00;;;;;;;14.86;57.75;100743.14;131085;1254;107437;-72
2023/06/12 04:02:42;;;;;;;10.30;5.00;;;;;;;15.02;57.79;100741.13;131195;1254;107500;-72
2023/06/12 04:05:49;;;;;;;6.20;4.80;;;;;;;15.17;57.80;100737.71;131141;1263;107592;-72
2023/06/12 04:08:54;;;;;;;8.00;4.70;;;;;;;15.37;57.86;100741.16;131131;1251;107460;-71
2023/06/12 04:12:00;;;;;;;8.30;5.00;;;;;;;15.61;57.70;100739.02;131144;1249;107551;-71
2023/06/12 04:15:08;;;;;;;5.30;4.80;;;;;;;15.86;57.82;100745.61;131140;1255;107520;-72
2023/06/12 04:18:14;;;;;;;6.30;5.30;;;;;;;16.08;57.79;100745.69;131176;1264;107558;-71
2023/06/12 04:21:21;;;;;;;8.10;5.10;;;;;;;16.29;57.74;100745.21;131132;1254;107508;-71
2023/06/12 04:24:30;;;;;;;7.90;5.20;;;;;;;16.52;57.99;100749.85;131227;1254;107295;-71
2023/06/12 04:27:36;;;;;;;5.80;5.10;;;;;;;16.69;57.74;100749.60;131057;1254;106623;-73
2023/06/12 04:30:44;;;;;;;6.80;4.70;;;;;;;16.95;57.45;100748.91;131089;1251;107714;-72
2023/06/12 04:33:51;;;;;;;6.10;5.20;;;;;;;17.38;57.30;100749.35;131086;1254;107507;-72
2023/06/12 04:36:57;;;;;;;7.30;4.70;;;;;;;17.73;56.68;100745.27;131186;1254;107413;-74
2023/06/12 04:40:04;;;;;;;9.40;5.50;;;;;;;18.06;56.64;100749.72;131112;1250;107649;-73
2023/06/12 04:43:11;;;;;;;6.70;5.60;;;;;;;18.24;56.00;100754.98;131081;1252;107594;-75
2023/06/12 04:46:17;;;;;;;6.70;5.10;;;;;;;18.29;55.13;100753.26;131363;1255;107449;-74
2023/06/12 04:49:25;;;;;;;7.80;5.40;;;;;;;18.31;55.25;100763.02;131358;1254;107889;-74
2023/06/12 04:52:32;;;;;;;7.00;5.40;;;;;;;18.33;54.96;100761.59;131845;1253;107290;-74
2023/06/12 04:55:38;;;;;;;7.70;5.50;;;;;;;18.40;54.70;100763.40;131114;1263;107547;-73
2023/06/12 04:58:44;;;;;;;7.50;5.30;;;;;;;18.44;54.45;100765.85;131113;1250;107435;-74
2023/06/12 05:01:51;;;;;;;8.50;5.40;;;;;;;18.49;54.18;100766.70;131147;1254;107636;-73
2023/06/12 05:04:57;;;;;;;10.20;5.40;;;;;;;18.58;54.10;100767.57;131089;1251;106685;-73
2023/06/12 05:08:03;;;;;;;8.10;5.20;;;;;;;18.66;53.86;100765.23;131021;1254;107368;-73
2023/06/12 05:11:09;;;;;;;10.10;5.20;;;;;;;18.72;53.58;100759.49;131105;1254;107539;-73
2023/06/12 05:14:15;;;;;;;8.50;5.50;;;;;;;18.78;53.52;100757.73;131096;1253;106460;-73
2023/06/12 05:17:20;;;;;;;7.30;5.20;;;;;;;18.87;53.13;100759.58;131059;1253;107510;-73
2023/06/12 05:20:26;;;;;;;5.40;4.60;;;;;;;18.76;53.02;100761.78;131084;1254;107508;-73
2023/06/12 05:23:32;;;;;;;5.90;4.50;;;;;;;18.81;53.42;100754.77;131273;1252;108846;-76
2023/06/12 05:26:38;;;;;;;6.20;4.50;;;;;;;18.97;52.83;100759.57;131257;1254;107516;-74
2023/06/12 05:29:44;;;;;;;7.70;4.70;;;;;;;19.08;52.16;100757.83;131091;1254;108215;-74
2023/06/12 05:32:50;;;;;;;6.50;4.40;;;;;;;19.12;52.28;100753.86;131379;1251;107512;-74
2023/06/12 05:35:56;;;;;;;5.50;4.00;;;;;;;19.18;52.37;100750.31;131241;1249;107505;-74
2023/06/12 05:39:03;;;;;;;7.80;4.50;;;;;;;19.27;51.96;100747.85;131078;1253;107501;-74
2023/06/12 05:42:10;;;;;;;7.50;4.30;;;;;;;19.37;51.87;100746.00;131103;1254;107422;-74
2023/06/12 05:45:16;;;;;;;7.70;4.90;;;;;;;19.44;51.81;100746.48;131104;1254;107534;-74
2023/06/12 05:48:22;;;;;;;7.70;3.90;;;;;;;19.48;51.08;100747.93;131062;1253;106859;-74
2023/06/12 05:51:29;;;;;;;4.90;3.70;;;;;;;19.48;50.14;100748.72;131325;1254;107350;-74
2023/06/12 05:54:35;;;;;;;10.90;3.70;;;;;;;19.40;50.22;100751.80;131175;1254;107342;-74
2023/06/12 05:57:41;;;;;;;7.80;3.50;;;;;;;19.37;49.28;100754.41;131128;1255;106987;-75
2023/06/12 06:00:49;;;;;;;8.10;3.40;;;;;;;19.31;49.58;100753.48;131247;1251;107617;-74
2023/06/12 06:04:00;;;;;;;6.80;3.40;;;;;;;19.30;49.55;100759.19;131067;1253;106529;-74
2023/06/12 06:07:09;;;;;;;5.40;3.40;;;;;;;19.21;48.77;100758.84;131395;1251;107601;-74
2023/06/12 06:10:15;;;;;;;5.50;3.10;;;;;;;19.19;49.05;100758.11;131428;1252;107416;-74
2023/06/12 06:13:20;;;;;;;6.50;3.10;;;;;;;19.21;49.22;100761.66;131171;1263;107702;-74
2023/06/12 06:16:26;;;;;;;3.90;3.20;;;;;;;19.23;49.29;100756.91;131199;1254;107630;-74
2023/06/12 06:19:32;;;;;;;7.30;3.40;;;;;;;19.31;49.01;100758.82;131159;1252;107525;-74
2023/06/12 06:22:38;;;;;;;5.10;3.10;;;;;;;19.27;48.72;100759.33;131085;1254;107600;-74
2023/06/12 06:25:44;;;;;;;4.00;3.00;;;;;;;19.30;48.74;100760.02;131104;1261;107571;-74
2023/06/12 06:28:50;;;;;;;4.90;3.00;;;;;;;19.35;48.69;100756.91;131089;1252;107404;-74
2023/06/12 06:31:56;;;;;;;5.00;2.70;;;;;;;19.34;46.92;100757.92;131090;1263;106633;-74
2023/06/12 06:35:02;;;;;;;4.90;2.10;;;;;;;19.25;45.86;100759.33;131086;1254;107693;-74
2023/06/12 06:38:07;;;;;;;4.90;2.60;;;;;;;19.23;46.93;100752.40;131381;1254;107512;-74
2023/06/12 06:41:13;;;;;;;4.10;1.80;;;;;;;19.39;46.36;100753.83;131036;1252;106699;-74
2023/06/12 06:44:19;;;;;;;3.30;2.00;;;;;;;19.44;45.23;100750.27;131209;1250;107489;-76
2023/06/12 06:47:26;;;;;;;2.50;1.80;;;;;;;19.52;45.54;100748.95;131224;1253;107579;-76
2023/06/12 06:50:31;;;;;;;3.90;1.90;;;;;;;19.52;43.52;100751.54;131205;1254;107735;-76
2023/06/12 06:53:37;;;;;;;2.80;2.00;;;;;;;19.56;43.78;100749.47;131105;1252;107503;-76
2023/06/12 06:56:43;;;;;;;4.60;3.10;;;;;;;19.60;44.31;100749.67;131195;1250;107532;-74
2023/06/12 06:59:48;;;;;;;5.00;2.90;;;;;;;19.69;43.97;100747.13;131097;1253;107567;-74
2023/06/12 07:02:54;;;;;;;2.00;1.80;;;;;;;19.75;42.76;100748.07;131384;1252;108328;-73
2023/06/12 07:06:02;;;;;;;7.30;1.90;;;;;;;19.79;42.56;100745.04;131316;1253;107477;-73
2023/06/12 07:09:08;;;;;;;2.70;1.60;;;;;;;19.86;42.74;100753.70;131061;1253;107203;-73
2023/06/12 07:12:14;;;;;;;2.30;1.80;;;;;;;19.92;41.83;100748.24;131098;1254;108632;-73
2023/06/12 07:15:20;;;;;;;5.20;1.80;;;;;;;19.94;41.18;100744.30;131149;1250;107540;-74
2023/06/12 07:18:26;;;;;;;3.00;1.50;;;;;;;19.95;39.85;100743.34;131108;1253;108737;-74
2023/06/12 07:21:32;;;;;;;8.00;2.60;;;;;;;19.94;39.81;100741.60;131237;1253;107478;-74
2023/06/12 07:24:38;;;;;;;3.60;1.50;;;;;;;19.95;39.03;100742.98;131104;1251;107318;-73
2023/06/12 07:27:44;;;;;;;1.70;1.50;;;;;;;19.93;37.83;100746.58;131410;1253;107371;-74
2023/06/12 07:30:50;;;;;;;4.30;1.60;;;;;;;19.86;37.19;100741.48;131076;1252;107390;-75
2023/06/12 07:33:57;;;;;;;2.80;1.60;;;;;;;19.84;38.39;100736.10;131160;1253;107456;-75
2023/06/12 07:37:03;;;;;;;2.50;1.30;;;;;;;19.90;37.69;100736.16;131119;1251;107466;-75
2023/06/12 07:40:11;;;;;;;2.40;1.40;;;;;;;19.97;38.01;100734.35;131064;1264;107142;-74
2023/06/12 07:43:17;;;;;;;3.00;1.60;;;;;;;20.08;37.63;100734.64;131165;1252;107486;-75
2023/06/12 07:46:23;;;;;;;48.10;25.70;;;;;;;20.13;36.81;100736.10;131203;1251;107463;-75
2023/06/12 07:49:29;;;;;;;16.10;7.10;;;;;;;20.15;37.63;100731.66;131063;1253;107435;-75
2023/06/12 07:52:35;;;;;;;11.50;6.20;;;;;;;20.20;37.38;100733.80;131116;1253;107501;-75
2023/06/12 07:55:40;;;;;;;7.40;3.00;;;;;;;20.32;37.42;100728.61;131032;1253;107550;-76
2023/06/12 07:58:46;;;;;;;3.50;1.80;;;;;;;20.40;36.96;100728.08;131068;1250;107186;-74
2023/06/12 08:01:52;;;;;;;6.40;1.70;;;;;;;20.41;36.78;100731.25;131381;1250;107549;-75
2023/06/12 08:05:00;;;;;;;4.30;1.60;;;;;;;20.48;36.90;100732.98;131321;1251;107487;-74
2023/06/12 08:08:06;;;;;;;5.50;1.60;;;;;;;20.52;36.44;100734.36;131226;1254;107669;-74
2023/06/12 08:11:17;;;;;;;2.40;1.70;;;;;;;20.61;37.00;100734.22;131176;1253;107647;-74
2023/06/12 08:14:27;;;;;;;3.70;1.60;;;;;;;20.65;37.15;100727.50;131281;1254;107516;-74
2023/06/12 08:17:35;;;;;;;3.30;1.60;;;;;;;20.69;36.83;100727.27;131306;1250;107543;-76
2023/06/12 08:20:40;;;;;;;5.10;1.50;;;;;;;20.71;36.48;100722.26;131235;1253;107245;-76
2023/06/12 08:23:46;;;;;;;3.40;1.50;;;;;;;20.73;36.58;100718.62;131340;1253;107608;-73
2023/06/12 08:26:52;;;;;;;4.00;1.60;;;;;;;20.75;36.14;100723.01;131272;1253;107685;-74
2023/06/12 08:29:58;;;;;;;3.40;1.50;;;;;;;20.80;36.42;100726.14;131230;1253;107443;-74
2023/06/12 08:33:04;;;;;;;4.00;1.80;;;;;;;20.85;36.01;100721.16;131343;1250;107503;-76
2023/06/12 08:36:12;;;;;;;6.20;1.70;;;;;;;20.85;35.43;100722.88;131356;1251;107519;-74
2023/06/12 08:39:18;;;;;;;2.40;1.50;;;;;;;20.80;34.63;100727.39;131214;1254;108536;-73
2023/06/12 08:42:25;;;;;;;4.60;1.80;;;;;;;20.86;35.63;100725.04;131168;1252;107450;-74
2023/06/12 08:45:33;;;;;;;4.00;1.90;;;;;;;20.93;35.51;100719.54;131163;1252;107844;-74
2023/06/12 08:48:39;;;;;;;3.30;2.00;;;;;;;21.00;35.26;100715.69;131256;1252;107032;-74
2023/06/12 08:51:45;;;;;;;3.10;1.70;;;;;;;21.04;34.93;100713.67;131188;1249;107553;-73
2023/06/12 08:54:52;;;;;;;2.50;1.90;;;;;;;21.13;35.60;100706.81;131214;1251;107687;-74
2023/06/12 08:57:59;;;;;;;3.30;1.90;;;;;;;21.29;35.77;100703.40;131055;1249;107377;-74
2023/06/12 09:01:06;;;;;;;3.40;2.00;;;;;;;21.42;35.13;100704.48;131410;1249;108423;-74
2023/06/12 09:04:28;;;;;;;3.30;1.70;;;;;;;21.46;34.82;100703.72;131434;1252;107554;-74
2023/06/12 09:07:40;;;;;;;4.60;1.80;;;;;;;21.52;34.89;100708.76;131093;1253;106641;-74
2023/06/12 09:10:46;;;;;;;2.10;1.70;;;;;;;21.62;34.78;100703.91;131246;1251;108149;-70
2023/06/12 09:13:53;;;;;;;4.00;1.90;;;;;;;21.67;34.30;100708.48;131066;1260;107365;-70
2023/06/12 09:16:59;;;;;;;3.30;2.20;;;;;;;21.68;34.79;100706.34;131455;1250;107652;-70
2023/06/12 09:20:06;;;;;;;2.80;1.80;;;;;;;21.66;34.92;100706.39;131022;1253;107354;-70
2023/06/12 09:23:13;;;;;;;3.00;2.00;;;;;;;21.75;34.90;100696.79;131383;1253;107633;-70
2023/06/12 09:26:21;;;;;;;3.40;2.00;;;;;;;21.94;35.04;100694.43;131220;1253;107393;-71
2023/06/12 09:29:31;;;;;;;4.70;2.20;;;;;;;22.09;34.57;100688.33;131190;1254;107378;-71
2023/06/12 09:32:37;;;;;;;2.50;1.80;;;;;;;22.00;34.78;100696.88;131047;1253;107328;-72
2023/06/12 09:35:55;;;;;;;4.00;2.10;;;;;;;21.86;34.95;100705.43;131098;1253;107430;-70
2023/06/12 09:39:01;;;;;;;4.50;2.20;;;;;;;21.70;34.82;100704.39;131097;1253;108242;-72
2023/06/12 09:42:07;;;;;;;5.00;2.00;;;;;;;21.47;34.68;100706.49;131073;1253;107621;-72
2023/06/12 09:45:17;;;;;;;5.70;2.50;;;;;;;21.33;34.68;100704.59;131137;1253;106502;-71
2023/06/12 09:48:23;;;;;;;9.20;2.50;;;;;;;21.21;34.21;100694.36;131134;1251;107456;-72
2023/06/12 09:51:30;;;;;;;4.00;1.90;;;;;;;21.17;33.77;100696.38;131109;1252;107371;-72
2023/06/12 09:54:37;;;;;;;2.90;1.90;;;;;;;21.48;34.53;100694.30;131188;1253;107231;-72
2023/06/12 09:57:48;;;;;;;4.10;1.90;;;;;;;21.75;34.34;100695.50;131128;1253;107518;-73
2023/06/12 10:00:55;;;;;;;4.00;2.00;;;;;;;21.95;33.96;100691.14;131254;1254;107565;-72
2023/06/12 10:04:03;;;;;;;3.30;1.80;;;;;;;22.02;33.58;100685.39;131345;1249;108670;-72
2023/06/12 10:07:24;;;;;;;3.10;2.00;;;;;;;22.14;34.00;100685.28;131271;1251;107525;-72
2023/06/12 10:10:30;;;;;;;2.50;2.00;;;;;;;22.33;33.81;100683.53;131072;1253;107430;-72
2023/06/12 10:13:36;;;;;;;3.30;2.00;;;;;;;22.58;33.74;100675.29;131087;1251;107517;-72
2023/06/12 10:16:44;;;;;;;3.30;1.70;;;;;;;22.76;33.44;100669.99;131164;1255;107638;-72
2023/06/12 10:19:52;;;;;;;3.40;2.10;;;;;;;22.88;33.25;100667.77;131227;1253;107550;-72
2023/06/12 10:22:58;;;;;;;3.60;2.00;;;;;;;22.97;33.09;100659.65;131213;1252;107091;-72
2023/06/12 10:26:05;;;;;;;2.20;1.70;;;;;;;23.03;32.56;100658.35;131347;1252;107468;-70
2023/06/12 10:29:31;;;;;;;3.70;1.90;;;;;;;23.10;32.92;100652.69;131246;1253;107446;-73
2023/06/12 10:32:37;;;;;;;2.20;1.60;;;;;;;23.11;32.46;100649.98;131114;1253;107508;-72
2023/06/12 10:35:43;;;;;;;1.90;1.70;;;;;;;23.04;32.32;100656.25;131257;1252;106908;-71
2023/06/12 10:38:57;;;;;;;3.30;2.00;;;;;;;22.96;32.53;100658.27;131063;1250;107654;-73
2023/06/12 10:42:08;;;;;;;2.20;1.70;;;;;;;22.90;32.31;100648.58;131326;1253;107392;-70
2023/06/12 10:45:22;;;;;;;4.30;2.00;;;;;;;22.93;32.64;100642.19;131101;1250;107556;-71
2023/06/12 10:48:28;;;;;;;5.70;1.80;;;;;;;23.04;32.45;100642.64;131099;1253;106810;-71
2023/06/12 10:51:36;;;;;;;3.00;2.00;;;;;;;23.04;31.66;100633.67;131183;1253;107568;-70
2023/06/12 10:54:42;;;;;;;2.20;1.80;;;;;;;23.02;32.41;100628.20;131048;1251;107630;-71
2023/06/12 10:57:54;;;;;;;5.70;2.00;;;;;;;22.87;31.99;100635.27;131263;1253;107407;-72
2023/06/12 11:01:08;;;;;;;3.40;1.70;;;;;;;22.63;32.07;100634.86;131219;1253;107454;-71
2023/06/12 11:04:14;;;;;;;3.60;1.80;;;;;;;22.55;32.10;100625.32;131324;1252;107359;-70
2023/06/12 11:07:20;;;;;;;5.50;1.80;;;;;;;22.56;31.33;100629.04;131217;1252;108096;-71
2023/06/12 11:10:26;;;;;;;2.60;1.90;;;;;;;22.43;30.81;100627.94;131339;1252;106610;-70
2023/06/12 11:13:32;;;;;;;3.40;1.80;;;;;;;22.37;31.26;100623.21;131191;1252;108024;-70
2023/06/12 11:16:42;;;;;;;3.30;1.60;;;;;;;22.44;31.39;100624.42;131281;1251;106184;-70
2023/06/12 11:19:47;;;;;;;3.10;1.80;;;;;;;22.51;31.46;100622.91;131385;1253;107445;-70
2023/06/12 11:23:01;;;;;;;2.80;1.90;;;;;;;22.56;31.02;100621.50;131381;1252;107493;-71
2023/06/12 11:26:08;;;;;;;4.80;2.10;;;;;;;22.52;31.36;100610.27;131168;1250;107222;-71
2023/06/12 11:29:18;;;;;;;3.40;1.70;;;;;;;22.54;30.97;100610.01;131148;1250;106559;-71
2023/06/12 11:32:24;;;;;;;2.40;1.70;;;;;;;22.49;31.04;100610.14;131169;1254;106490;-71
2023/06/12 11:35:30;;;;;;;5.40;1.90;;;;;;;22.47;31.35;100604.42;131203;1250;107362;-71
2023/06/12 11:38:35;;;;;;;5.50;1.70;;;;;;;22.45;30.78;100602.81;131067;1265;107562;-71
2023/06/12 11:41:42;;;;;;;2.20;1.70;;;;;;;22.46;31.06;100598.08;131136;1252;107357;-71
2023/06/12 11:44:52;;;;;;;3.70;1.90;;;;;;;22.52;30.55;100597.81;131154;1250;108116;-71
2023/06/12 11:47:58;;;;;;;4.10;1.70;;;;;;;22.49;30.26;100591.48;131145;1253;107507;-71
2023/06/12 11:51:05;;;;;;;2.30;2.00;;;;;;;22.30;30.43;100589.39;131095;1252;107212;-71
2023/06/12 11:54:15;;;;;;;3.70;1.90;;;;;;;22.14;30.29;100587.33;131164;1252;107662;-70
2023/06/12 11:57:20;;;;;;;3.90;1.70;;;;;;;22.19;30.70;100578.05;131355;1253;107373;-71
2023/06/12 12:00:30;;;;;;;2.40;1.90;;;;;;;22.33;30.63;100575.42;131237;1253;107497;-71
2023/06/12 12:03:37;;;;;;;4.30;1.70;;;;;;;22.45;30.72;100575.91;131263;1250;107243;-71
2023/06/12 12:06:50;;;;;;;3.50;1.80;;;;;;;22.39;30.24;100571.25;131018;1252;107369;-71
2023/06/12 12:10:07;;;;;;;3.80;1.80;;;;;;;22.32;30.52;100570.17;131164;1252;107505;-71
2023/06/12 12:13:12;;;;;;;3.60;2.00;;;;;;;22.26;30.51;100572.14;131314;1251;107516;-71
2023/06/12 12:16:21;;;;;;;4.10;1.80;;;;;;;22.24;30.38;100570.77;131134;1251;107593;-71
2023/06/12 12:19:29;;;;;;;2.70;2.00;;;;;;;22.28;30.26;100566.29;131108;1252;107551;-71
2023/06/12 12:22:40;;;;;;;3.00;1.60;;;;;;;22.34;30.12;100565.35;131218;1250;108193;-71
2023/06/12 12:25:48;;;;;;;5.00;1.80;;;;;;;22.38;30.06;100569.33;131343;1253;106282;-71
2023/06/12 12:28:54;;;;;;;3.50;2.10;;;;;;;22.48;30.04;100558.06;131213;1251;107917;-71
2023/06/12 12:31:59;;;;;;;2.10;1.50;;;;;;;22.62;29.94;100551.69;131157;1249;105789;-71
2023/06/12 12:35:05;;;;;;;4.00;1.70;;;;;;;22.76;30.03;100553.38;131034;1252;107523;-71
2023/06/12 12:38:11;;;;;;;5.00;1.90;;;;;;;22.80;29.75;100553.46;131297;1257;107521;-71
2023/06/12 12:41:17;;;;;;;2.00;1.80;;;;;;;22.85;30.46;100546.87;131298;1252;107623;-71
2023/06/12 12:44:22;;;;;;;3.00;1.90;;;;;;;22.97;29.44;100544.39;131230;1252;107486;-71
2023/06/12 12:47:28;;;;;;;7.80;3.40;;;;;;;22.96;29.49;100544.91;131379;1252;107506;-73
2023/06/12 12:50:33;;;;;;;12.70;5.60;;;;;;;22.83;29.56;100542.51;131239;1253;107347;-73
2023/06/12 12:53:39;;;;;;;3.80;2.40;;;;;;;22.88;29.74;100537.64;131479;1249;107226;-72
2023/06/12 12:56:45;;;;;;;3.30;2.00;;;;;;;22.94;29.15;100536.17;131168;1250;107413;-71
2023/06/12 12:59:51;;;;;;;5.70;1.80;;;;;;;22.99;29.31;100531.93;131118;1261;107381;-72
2023/06/12 13:02:56;;;;;;;1.80;1.60;;;;;;;23.10;29.43;100531.06;131387;1250;107281;-71
2023/06/12 13:06:02;;;;;;;2.30;1.90;;;;;;;23.17;29.27;100523.85;131389;1253;107575;-71
2023/06/12 13:09:08;;;;;;;5.60;1.80;;;;;;;23.07;29.20;100527.29;131433;1249;107482;-71
2023/06/12 13:12:14;;;;;;;3.20;1.90;;;;;;;22.93;29.16;100532.80;131269;1253;108260;-71
2023/06/12 13:15:20;;;;;;;2.80;1.70;;;;;;;22.89;29.15;100515.96;131365;1253;107508;-71
2023/06/12 13:18:26;;;;;;;2.40;1.70;;;;;;;22.98;29.25;100515.91;131081;1253;107521;-71
2023/06/12 13:21:31;;;;;;;3.90;1.90;;;;;;;23.02;29.15;100513.35;131114;1253;105829;-73
2023/06/12 13:24:38;;;;;;;4.50;2.00;;;;;;;23.05;29.15;100510.99;131087;1255;107507;-72
2023/06/12 13:27:44;;;;;;;2.70;1.70;;;;;;;23.05;29.00;100513.95;131120;1255;107540;-70
2023/06/12 13:30:50;;;;;;;2.50;1.80;;;;;;;23.03;28.97;100512.90;130954;1251;107552;-72
2023/06/12 13:33:56;;;;;;;2.20;1.70;;;;;;;23.07;27.64;100510.02;131101;1252;107347;-70
2023/06/12 13:37:02;;;;;;;3.10;1.80;;;;;;;23.06;28.89;100507.20;131045;1252;107250;-72
2023/06/12 13:40:12;;;;;;;4.10;2.40;;;;;;;23.24;29.00;100500.04;131322;1253;107474;-70
2023/06/12 13:43:18;;;;;;;2.00;1.60;;;;;;;23.42;28.99;100501.81;130934;1260;107361;-70
2023/06/12 13:46:24;;;;;;;2.40;1.70;;;;;;;23.54;28.88;100499.75;130933;1253;106294;-70
2023/06/12 13:49:31;;;;;;;3.50;1.90;;;;;;;23.48;28.88;100493.81;131180;1261;107813;-70
2023/06/12 13:52:36;;;;;;;3.10;2.00;;;;;;;23.33;28.52;100500.27;131047;1253;109652;-70
2023/06/12 13:55:42;;;;;;;2.20;1.70;;;;;;;23.18;28.85;100495.62;130900;1255;108094;-70
2023/06/12 13:58:47;;;;;;;2.80;2.00;;;;;;;23.05;28.89;100498.77;131002;1253;108679;-70
2023/06/12 14:01:54;;;;;;;4.80;2.10;;;;;;;23.01;28.71;100493.39;131005;1253;108163;-70
2023/06/12 14:04:59;;;;;;;2.50;1.90;;;;;;;22.99;28.30;100488.15;130845;1254;237163;-71
2023/06/12 14:08:05;;;;;;;4.70;2.00;;;;;;;22.99;28.59;100484.67;131125;1252;108422;-72
2023/06/12 14:11:11;;;;;;;7.80;2.20;;;;;;;23.02;28.23;100490.36;131143;1256;107478;-71